Station Historical Data
Daily Summary for May 27, 2011 Units:  English    Metric   Both
« Previous Day
Next Day »
Daily Weekly Monthly Yearly Custom
  High: Low: Average:
Temperature: 74.6 °F 55.7 °F 64.7 °F
Dew Point: 61.5 °F 54.3 °F 57.4 °F
Humidity: 97% 61% 79%
Wind Speed: 6.0mph 0.0mph 2mph
Wind Gust: 8.0mph - -
Wind- - West
Pressure: 29.93 in 29.84 in -
Precipitation: 0.00 in    
Historical Graphs
 
 
Tabular Data for May 27, 2011
Time Temperature Dew Point Pressure Wind Wind Speed Wind Gust Humidity Rainfall Rate (Hourly) Conditions
00:00 59.9 °F 57.0 °F 29.87 in Calm   2.0 mph 90% 0.00 in
00:01 59.9 °F 57.0 °F 29.87 in Calm   2.0 mph 90% 0.00 in
00:05 59.7 °F 57.1 °F 29.86 in NNW 1.0 mph 1.0 mph 91% 0.00 in
00:06 59.7 °F 57.1 °F 29.86 in NNW 1.0 mph 1.0 mph 91% 0.00 in
00:11 59.6 °F 57.0 °F 29.86 in NNW 2.0 mph 2.0 mph 91% 0.00 in
00:16 59.5 °F 56.9 °F 29.86 in NNW 1.0 mph 1.0 mph 91% 0.00 in
00:21 59.3 °F 56.7 °F 29.86 in Calm     91% 0.00 in
00:26 59.1 °F 56.8 °F 29.86 in NNW 1.0 mph 1.0 mph 92% 0.00 in
00:27 59.0 °F 56.7 °F 29.86 in Calm   1.0 mph 92% 0.00 in
00:31 58.9 °F 56.6 °F 29.86 in Calm   1.0 mph 92% 0.00 in
00:32 58.9 °F 56.6 °F 29.86 in Calm   1.0 mph 92% 0.00 in
00:36 58.7 °F 56.7 °F 29.86 in NNW 1.0 mph 2.0 mph 93% 0.00 in
00:37 58.7 °F 56.7 °F 29.86 in Calm   1.0 mph 93% 0.00 in
00:42 58.6 °F 56.6 °F 29.86 in NW 3.0 mph 3.0 mph 93% 0.00 in
00:47 58.6 °F 56.6 °F 29.86 in NW 1.0 mph 5.0 mph 93% 0.00 in
00:52 58.5 °F 56.5 °F 29.86 in WNW 2.0 mph 3.0 mph 93% 0.00 in
00:54 58.4 °F 56.4 °F 29.86 in NW 2.0 mph 3.0 mph 93% 0.00 in
00:57 58.3 °F 56.3 °F 29.86 in WNW 5.0 mph 5.0 mph 93% 0.00 in
00:59 58.4 °F 56.7 °F 29.86 in WNW 5.0 mph 6.0 mph 94% 0.00 in
01:04 58.6 °F 56.9 °F 29.86 in WNW 5.0 mph 7.0 mph 94% 0.00 in
01:09 58.7 °F 57.0 °F 29.86 in WNW 6.0 mph 6.0 mph 94% 0.00 in
01:14 58.8 °F 56.8 °F 29.86 in WNW 5.0 mph 7.0 mph 93% 0.00 in
01:19 58.8 °F 56.8 °F 29.85 in NW 2.0 mph 4.0 mph 93% 0.00 in
01:25 58.8 °F 56.8 °F 29.85 in WNW 4.0 mph 6.0 mph 93% 0.00 in
01:26 58.8 °F 56.8 °F 29.85 in NW 3.0 mph 6.0 mph 93% 0.00 in
01:30 58.8 °F 56.8 °F 29.85 in WNW 2.0 mph 5.0 mph 93% 0.00 in
01:31 58.8 °F 56.8 °F 29.85 in WNW 3.0 mph 5.0 mph 93% 0.00 in
01:35 58.8 °F 56.8 °F 29.85 in NW 3.0 mph 3.0 mph 93% 0.00 in
01:36 58.7 °F 56.7 °F 29.85 in WNW 1.0 mph 3.0 mph 93% 0.00 in
01:41 58.7 °F 56.7 °F 29.85 in NW 3.0 mph 4.0 mph 93% 0.00 in
01:46 58.7 °F 56.7 °F 29.85 in NW 1.0 mph 4.0 mph 93% 0.00 in
01:51 58.7 °F 56.7 °F 29.85 in NW 4.0 mph 4.0 mph 93% 0.00 in
01:56 58.6 °F 56.6 °F 29.85 in NW 2.0 mph 6.0 mph 93% 0.00 in
01:57 58.6 °F 56.6 °F 29.85 in NW 2.0 mph 6.0 mph 93% 0.00 in
01:58 58.5 °F 56.5 °F 29.85 in NW 2.0 mph 3.0 mph 93% 0.00 in
02:01 58.4 °F 56.4 °F 29.85 in NNW 4.0 mph 5.0 mph 93% 0.00 in
02:06 58.2 °F 56.2 °F 29.84 in NNW 1.0 mph 5.0 mph 93% 0.00 in
02:11 58.0 °F 56.0 °F 29.85 in NW 1.0 mph 2.0 mph 93% 0.00 in
02:16 57.8 °F 55.8 °F 29.85 in NW 1.0 mph 1.0 mph 93% 0.00 in
02:21 57.6 °F 55.6 °F 29.85 in Calm   1.0 mph 93% 0.00 in
02:26 57.5 °F 55.8 °F 29.85 in Calm     94% 0.00 in
02:27 57.4 °F 55.7 °F 29.85 in Calm     94% 0.00 in
02:32 57.4 °F 55.7 °F 29.85 in Calm     94% 0.00 in
02:33 57.3 °F 55.6 °F 29.85 in Calm     94% 0.00 in
02:37 57.2 °F 55.5 °F 29.85 in Calm     94% 0.00 in
02:42 57.1 °F 55.4 °F 29.85 in Calm   1.0 mph 94% 0.00 in
02:47 57.0 °F 55.3 °F 29.86 in NE 1.0 mph 2.0 mph 94% 0.00 in
02:52 56.9 °F 55.2 °F 29.86 in Calm   1.0 mph 94% 0.00 in
02:57 56.9 °F 55.5 °F 29.86 in Calm     95% 0.00 in
02:58 56.9 °F 55.5 °F 29.86 in NE 1.0 mph 2.0 mph 95% 0.00 in
03:03 57.0 °F 55.6 °F 29.86 in NE 1.0 mph 1.0 mph 95% 0.00 in
03:05 57.0 °F 55.6 °F 29.86 in Calm   1.0 mph 95% 0.00 in
03:08 57.0 °F 55.3 °F 29.87 in Calm     94% 0.00 in
03:13 56.6 °F 54.9 °F 29.87 in NE 1.0 mph 1.0 mph 94% 0.00 in
03:18 56.3 °F 54.9 °F 29.87 in NNE 1.0 mph 1.0 mph 95% 0.00 in
03:23 56.1 °F 55.0 °F 29.87 in Calm   1.0 mph 96% 0.00 in
03:24 56.1 °F 55.0 °F 29.87 in NNE 1.0 mph 1.0 mph 96% 0.00 in
03:29 56.2 °F 55.1 °F 29.88 in Calm     96% 0.00 in
03:34 56.3 °F 55.2 °F 29.88 in Calm     96% 0.00 in
03:39 56.5 °F 55.7 °F 29.88 in Calm     97% 0.00 in
03:44 56.6 °F 55.8 °F 29.87 in NE 2.0 mph 3.0 mph 97% 0.00 in
03:49 56.9 °F 55.8 °F 29.87 in Calm   1.0 mph 96% 0.00 in
03:54 57.1 °F 56.0 °F 29.87 in Calm     96% 0.00 in
03:55 57.1 °F 56.0 °F 29.87 in Calm     96% 0.00 in
04:00 57.1 °F 55.7 °F 29.87 in NW 1.0 mph 2.0 mph 95% 0.00 in
04:05 57.0 °F 55.6 °F 29.87 in NW 1.0 mph 2.0 mph 95% 0.00 in
04:10 57.0 °F 55.6 °F 29.88 in NW 2.0 mph 2.0 mph 95% 0.00 in
04:15 57.1 °F 56.0 °F 29.88 in NNW 1.0 mph 2.0 mph 96% 0.00 in
04:20 57.2 °F 55.8 °F 29.87 in NNW 1.0 mph 4.0 mph 95% 0.00 in
04:25 57.2 °F 55.8 °F 29.87 in NNW 2.0 mph 2.0 mph 95% 0.00 in
04:26 57.2 °F 55.8 °F 29.87 in NNW 2.0 mph 2.0 mph 95% 0.00 in
04:27 57.2 °F 55.8 °F 29.87 in NNW 1.0 mph 2.0 mph 95% 0.00 in
04:31 57.2 °F 55.8 °F 29.87 in NNW 1.0 mph 1.0 mph 95% 0.00 in
04:32 57.2 °F 55.8 °F 29.87 in NW 1.0 mph 1.0 mph 95% 0.00 in
04:33 57.2 °F 55.8 °F 29.87 in WNW 1.0 mph 1.0 mph 95% 0.00 in
04:37 57.2 °F 55.8 °F 29.87 in WNW 1.0 mph 2.0 mph 95% 0.00 in
04:42 57.0 °F 55.6 °F 29.87 in NW 2.0 mph 3.0 mph 95% 0.00 in
04:47 57.0 °F 55.6 °F 29.88 in WNW 2.0 mph 3.0 mph 95% 0.00 in
04:52 56.9 °F 55.5 °F 29.88 in NW 3.0 mph 4.0 mph 95% 0.00 in
04:53 56.8 °F 55.4 °F 29.88 in NW 2.0 mph 4.0 mph 95% 0.00 in
04:54 56.8 °F 55.4 °F 29.88 in WNW 2.0 mph 4.0 mph 95% 0.00 in
04:58 56.6 °F 55.2 °F 29.88 in NW 2.0 mph 3.0 mph 95% 0.00 in
04:59 56.6 °F 55.2 °F 29.88 in NW 1.0 mph 3.0 mph 95% 0.00 in
05:04 56.3 °F 54.9 °F 29.88 in NNW 1.0 mph 2.0 mph 95% 0.00 in
05:09 56.2 °F 54.8 °F 29.88 in NW 2.0 mph 2.0 mph 95% 0.00 in
05:14 56.0 °F 54.6 °F 29.88 in NW 2.0 mph 3.0 mph 95% 0.00 in
05:19 55.9 °F 54.5 °F 29.88 in NW 1.0 mph 2.0 mph 95% 0.00 in
05:20 55.8 °F 54.4 °F 29.88 in NW 1.0 mph 2.0 mph 95% 0.00 in
05:24 55.7 °F 54.3 °F 29.88 in NW 2.0 mph 2.0 mph 95% 0.00 in
05:29 55.8 °F 54.7 °F 29.88 in NNW 1.0 mph 3.0 mph 96% 0.00 in
05:31 55.8 °F 54.7 °F 29.88 in NW 2.0 mph 3.0 mph 96% 0.00 in
05:32 55.9 °F 54.8 °F 29.88 in NNW 2.0 mph 3.0 mph 96% 0.00 in
05:34 55.9 °F 54.8 °F 29.88 in NW 3.0 mph 4.0 mph 96% 0.00 in
05:36 56.0 °F 54.6 °F 29.88 in NW 3.0 mph 4.0 mph 95% 0.00 in
05:41 56.1 °F 54.4 °F 29.88 in NW 1.0 mph 4.0 mph 94% 0.00 in
05:46 56.2 °F 54.5 °F 29.89 in NNW 1.0 mph 3.0 mph 94% 0.00 in
05:51 56.3 °F 54.3 °F 29.89 in NNW 1.0 mph 2.0 mph 93% 0.00 in
05:53 56.3 °F 54.3 °F 29.89 in NW 1.0 mph 1.0 mph 93% 0.00 in
05:58 56.4 °F 54.7 °F 29.89 in NW 1.0 mph 1.0 mph 94% 0.00 in
06:00 56.4 °F 54.7 °F 29.89 in Calm   1.0 mph 94% 0.00 in
06:05 56.5 °F 54.8 °F 29.89 in Calm   1.0 mph 94% 0.00 in
06:10 56.5 °F 54.8 °F 29.89 in NW 2.0 mph 2.0 mph 94% 0.00 in
06:15 56.5 °F 54.8 °F 29.89 in NW 3.0 mph 3.0 mph 94% 0.00 in
06:20 56.5 °F 54.8 °F 29.90 in WNW 2.0 mph 4.0 mph 94% 0.00 in
06:25 56.5 °F 54.8 °F 29.89 in NW 2.0 mph 2.0 mph 94% 0.00 in
06:30 56.4 °F 54.7 °F 29.90 in NW 1.0 mph 2.0 mph 94% 0.00 in
06:31 56.4 °F 54.7 °F 29.90 in NW 1.0 mph 2.0 mph 94% 0.00 in
06:32 56.4 °F 54.7 °F 29.90 in Calm   2.0 mph 94% 0.00 in
06:35 56.4 °F 54.7 °F 29.90 in NW 1.0 mph 1.0 mph 94% 0.00 in
06:38 56.5 °F 54.8 °F 29.90 in WNW 2.0 mph 3.0 mph 94% 0.00 in
06:40 56.5 °F 54.8 °F 29.90 in WNW 1.0 mph 3.0 mph 94% 0.00 in
06:45 56.5 °F 54.8 °F 29.90 in WNW 3.0 mph 3.0 mph 94% 0.00 in
06:50 56.5 °F 54.8 °F 29.90 in WNW 3.0 mph 3.0 mph 94% 0.00 in
06:51 56.5 °F 54.8 °F 29.90 in WNW 3.0 mph 3.0 mph 94% 0.00 in
06:53 56.5 °F 54.8 °F 29.90 in WNW 1.0 mph 3.0 mph 94% 0.00 in
06:56 56.5 °F 55.1 °F 29.91 in WNW 2.0 mph 3.0 mph 95% 0.00 in
06:57 56.5 °F 55.1 °F 29.91 in WNW 1.0 mph 3.0 mph 95% 0.00 in
06:58 56.5 °F 55.1 °F 29.91 in WNW 1.0 mph 3.0 mph 95% 0.00 in
07:03 56.5 °F 55.1 °F 29.91 in WNW 2.0 mph 3.0 mph 95% 0.00 in
07:08 56.5 °F 55.1 °F 29.91 in NW 2.0 mph 3.0 mph 95% 0.00 in
07:13 56.5 °F 55.1 °F 29.92 in WNW 4.0 mph 5.0 mph 95% 0.00 in
07:18 56.5 °F 55.1 °F 29.92 in NW 5.0 mph 5.0 mph 95% 0.00 in
07:19 56.5 °F 55.1 °F 29.92 in NW 4.0 mph 5.0 mph 95% 0.00 in
07:24 56.5 °F 55.1 °F 29.92 in WNW 4.0 mph 4.0 mph 95% 0.00 in
07:29 56.5 °F 55.1 °F 29.92 in WNW 4.0 mph 4.0 mph 95% 0.00 in
07:34 56.6 °F 55.2 °F 29.91 in WNW 3.0 mph 4.0 mph 95% 0.00 in
07:35 56.6 °F 55.2 °F 29.91 in NW 2.0 mph 4.0 mph 95% 0.00 in
07:39 56.7 °F 55.3 °F 29.91 in WNW 2.0 mph 5.0 mph 95% 0.00 in
07:44 56.7 °F 55.3 °F 29.91 in NNW 2.0 mph 5.0 mph 95% 0.00 in
07:49 56.8 °F 55.1 °F 29.92 in NW 3.0 mph 5.0 mph 94% 0.00 in
07:54 56.9 °F 55.2 °F 29.92 in NW 2.0 mph 4.0 mph 94% 0.00 in
07:58 57.0 °F 55.6 °F 29.92 in NW 2.0 mph 4.0 mph 95% 0.00 in
07:59 57.0 °F 55.3 °F 29.92 in NNW 2.0 mph 4.0 mph 94% 0.00 in
08:04 57.1 °F 55.4 °F 29.92 in NNW 3.0 mph 4.0 mph 94% 0.00 in
08:09 57.4 °F 56.0 °F 29.92 in West 1.0 mph 3.0 mph 95% 0.00 in
08:14 57.5 °F 55.8 °F 29.92 in WNW 4.0 mph 6.0 mph 94% 0.00 in
08:19 57.5 °F 55.5 °F 29.92 in NNW 5.0 mph 5.0 mph 93% 0.00 in
08:24 57.5 °F 55.5 °F 29.92 in NNW 4.0 mph 6.0 mph 93% 0.00 in
08:25 57.5 °F 55.2 °F 29.92 in NW 3.0 mph 6.0 mph 92% 0.00 in
08:29 57.7 °F 55.4 °F 29.92 in WNW 4.0 mph 6.0 mph 92% 0.00 in
08:30 57.7 °F 55.4 °F 29.92 in WNW 4.0 mph 6.0 mph 92% 0.00 in
08:35 57.7 °F 55.4 °F 29.92 in NNW 3.0 mph 5.0 mph 92% 0.00 in
08:36 57.8 °F 55.5 °F 29.92 in NW 2.0 mph 4.0 mph 92% 0.00 in
08:41 57.9 °F 55.6 °F 29.93 in NW 2.0 mph 4.0 mph 92% 0.00 in
08:46 57.9 °F 55.3 °F 29.93 in NW 3.0 mph 6.0 mph 91% 0.00 in
08:51 57.8 °F 54.9 °F 29.93 in NNW 4.0 mph 5.0 mph 90% 0.00 in
08:52 57.8 °F 54.9 °F 29.93 in NW 3.0 mph 5.0 mph 90% 0.00 in
08:57 57.9 °F 55.3 °F 29.93 in NW 3.0 mph 4.0 mph 91% 0.00 in
08:58 58.0 °F 55.4 °F 29.93 in NW 1.0 mph 4.0 mph 91% 0.00 in
09:02 58.0 °F 55.4 °F 29.93 in NW 3.0 mph 4.0 mph 91% 0.00 in
09:07 58.2 °F 55.6 °F 29.93 in NNW 3.0 mph 6.0 mph 91% 0.00 in
09:13 58.3 °F 55.4 °F 29.93 in NNW 4.0 mph 5.0 mph 90% 0.00 in
09:18 58.7 °F 55.8 °F 29.93 in NNW 2.0 mph 4.0 mph 90% 0.00 in
09:23 59.0 °F 56.1 °F 29.93 in NNW 3.0 mph 3.0 mph 90% 0.00 in
09:28 59.3 °F 56.7 °F 29.93 in WNW 2.0 mph 3.0 mph 91% 0.00 in
09:29 59.3 °F 56.1 °F 29.93 in WNW 2.0 mph 3.0 mph 89% 0.00 in
09:30 59.3 °F 56.1 °F 29.93 in NW 3.0 mph 3.0 mph 89% 0.00 in
09:33 59.3 °F 56.1 °F 29.93 in WNW 2.0 mph 4.0 mph 89% 0.00 in
09:35 59.3 °F 55.8 °F 29.93 in WNW 2.0 mph 4.0 mph 88% 0.00 in
09:36 59.3 °F 55.8 °F 29.93 in WNW 2.0 mph 4.0 mph 88% 0.00 in
09:38 59.3 °F 55.8 °F 29.93 in NNW 4.0 mph 4.0 mph 88% 0.00 in
09:41 59.2 °F 55.7 °F 29.93 in WNW 2.0 mph 4.0 mph 88% 0.00 in
09:43 59.2 °F 55.3 °F 29.93 in NW 2.0 mph 4.0 mph 87% 0.00 in
09:48 59.3 °F 55.4 °F 29.93 in West 2.0 mph 3.0 mph 87% 0.00 in
09:54 59.4 °F 55.8 °F 29.93 in NNW 1.0 mph 3.0 mph 88% 0.00 in
09:57 59.5 °F 55.6 °F 29.93 in NNW 2.0 mph 2.0 mph 87% 0.00 in
09:59 59.6 °F 55.7 °F 29.93 in WNW 3.0 mph 3.0 mph 87% 0.00 in
10:04 59.8 °F 55.3 °F 29.93 in North 2.0 mph 4.0 mph 85% 0.00 in
10:09 60.0 °F 55.5 °F 29.93 in NE 4.0 mph 5.0 mph 85% 0.00 in
10:14 60.1 °F 54.9 °F 29.93 in ENE 2.0 mph 4.0 mph 83% 0.00 in
10:20 60.3 °F 55.5 °F 29.93 in NW 4.0 mph 4.0 mph 84% 0.00 in
10:25 60.4 °F 55.5 °F 29.93 in NW 2.0 mph 4.0 mph 84% 0.00 in
10:27 60.5 °F 55.3 °F 29.93 in North 2.0 mph 3.0 mph 83% 0.00 in
10:30 60.6 °F 55.8 °F 29.93 in North 5.0 mph 5.0 mph 84% 0.00 in
10:31 60.6 °F 55.8 °F 29.93 in NNE 4.0 mph 5.0 mph 84% 0.00 in
10:32 60.6 °F 55.8 °F 29.93 in NNW 2.0 mph 5.0 mph 84% 0.00 in
10:36 60.6 °F 55.4 °F 29.93 in NNW 2.0 mph 3.0 mph 83% 0.00 in
10:37 60.6 °F 55.4 °F 29.93 in NNW 2.0 mph 3.0 mph 83% 0.00 in
10:42 60.6 °F 55.8 °F 29.93 in NW 2.0 mph 3.0 mph 84% 0.00 in
10:43 60.6 °F 55.8 °F 29.93 in North 2.0 mph 3.0 mph 84% 0.00 in
10:48 60.8 °F 55.6 °F 29.92 in NE 4.0 mph 4.0 mph 83% 0.00 in
10:53 60.9 °F 55.4 °F 29.92 in NNE 3.0 mph 4.0 mph 82% 0.00 in
10:54 60.9 °F 55.4 °F 29.92 in NNW 1.0 mph 3.0 mph 82% 0.00 in
10:58 61.2 °F 56.0 °F 29.92 in WNW 1.0 mph 3.0 mph 83% 0.00 in
10:59 61.3 °F 55.8 °F 29.92 in WNW 2.0 mph 2.0 mph 82% 0.00 in
11:04 61.4 °F 55.2 °F 29.92 in NE 1.0 mph 4.0 mph 80% 0.00 in
11:09 61.7 °F 56.2 °F 29.92 in East 2.0 mph 2.0 mph 82% 0.00 in
11:14 62.0 °F 55.4 °F 29.92 in Calm   3.0 mph 79% 0.00 in
11:15 62.0 °F 55.4 °F 29.92 in Calm   3.0 mph 79% 0.00 in
11:20 62.7 °F 56.8 °F 29.92 in Calm   3.0 mph 81% 0.00 in
11:25 63.2 °F 56.2 °F 29.92 in SSE 2.0 mph 3.0 mph 78% 0.00 in
11:30 63.0 °F 55.7 °F 29.92 in East 1.0 mph 4.0 mph 77% 0.00 in
11:34 63.3 °F 56.3 °F 29.92 in South 3.0 mph 3.0 mph 78% 0.00 in
11:35 63.4 °F 56.1 °F 29.92 in SSE 3.0 mph 3.0 mph 77% 0.00 in
11:40 63.9 °F 55.8 °F 29.92 in South 2.0 mph 3.0 mph 75% 0.00 in
11:45 64.3 °F 57.0 °F 29.92 in SE 2.0 mph 2.0 mph 77% 0.00 in
11:50 64.4 °F 56.3 °F 29.92 in South 2.0 mph 4.0 mph 75% 0.00 in
11:51 64.4 °F 56.3 °F 29.92 in SSW 2.0 mph 4.0 mph 75% 0.00 in
11:52 64.4 °F 55.9 °F 29.92 in SE 1.0 mph 2.0 mph 74% 0.00 in
11:55 64.5 °F 56.0 °F 29.92 in SW 2.0 mph 4.0 mph 74% 0.00 in
11:56 64.5 °F 56.0 °F 29.92 in SW 2.0 mph 4.0 mph 74% 0.00 in
11:57 64.4 °F 55.9 °F 29.92 in WSW 2.0 mph 4.0 mph 74% 0.00 in
11:58 64.3 °F 56.2 °F 29.92 in SSW 1.0 mph 3.0 mph 75% 0.00 in
12:02 64.6 °F 56.5 °F 29.92 in Calm   1.0 mph 75% 0.00 in
12:07 65.0 °F 56.9 °F 29.92 in Calm   3.0 mph 75% 0.00 in
12:12 64.6 °F 56.5 °F 29.92 in North 2.0 mph 4.0 mph 75% 0.00 in
12:17 64.2 °F 56.5 °F 29.92 in ENE 3.0 mph 4.0 mph 76% 0.00 in
12:22 64.4 °F 56.7 °F 29.92 in North 1.0 mph 2.0 mph 76% 0.00 in
12:27 64.8 °F 57.1 °F 29.92 in East 3.0 mph 3.0 mph 76% 0.00 in
12:28 64.8 °F 57.1 °F 29.92 in East 2.0 mph 3.0 mph 76% 0.00 in
12:29 64.8 °F 56.7 °F 29.92 in ENE 1.0 mph 3.0 mph 75% 0.00 in
12:32 64.7 °F 56.6 °F 29.92 in ESE 4.0 mph 4.0 mph 75% 0.00 in
12:33 64.7 °F 56.6 °F 29.92 in East 3.0 mph 4.0 mph 75% 0.00 in
12:36 64.7 °F 57.0 °F 29.92 in East 2.0 mph 4.0 mph 76% 0.00 in
12:41 65.1 °F 57.0 °F 29.92 in Calm   2.0 mph 75% 0.00 in
12:42 65.1 °F 57.0 °F 29.92 in Calm   2.0 mph 75% 0.00 in
12:47 65.8 °F 57.7 °F 29.92 in WSW 2.0 mph 2.0 mph 75% 0.00 in
12:52 66.0 °F 57.9 °F 29.91 in NW 3.0 mph 4.0 mph 75% 0.00 in
12:53 66.0 °F 57.1 °F 29.92 in WNW 4.0 mph 5.0 mph 73% 0.00 in
12:57 65.6 °F 57.5 °F 29.92 in WNW 2.0 mph 6.0 mph 75% 0.00 in
12:59 65.5 °F 57.4 °F 29.92 in Calm   4.0 mph 75% 0.00 in
13:02 65.8 °F 57.7 °F 29.92 in NNW 3.0 mph 5.0 mph 75% 0.00 in
13:08 65.9 °F 58.1 °F 29.92 in NNW 2.0 mph 3.0 mph 76% 0.00 in
13:13 66.0 °F 57.1 °F 29.92 in WNW 2.0 mph 5.0 mph 73% 0.00 in
13:18 66.2 °F 59.2 °F 29.92 in NW 3.0 mph 5.0 mph 78% 0.00 in
13:23 66.1 °F 57.6 °F 29.92 in West 3.0 mph 4.0 mph 74% 0.00 in
13:28 65.9 °F 57.4 °F 29.92 in West 3.0 mph 6.0 mph 74% 0.00 in
13:29 65.8 °F 56.9 °F 29.92 in WNW 3.0 mph 6.0 mph 73% 0.00 in
13:33 65.6 °F 56.7 °F 29.92 in NW 1.0 mph 5.0 mph 73% 0.00 in
13:34 65.7 °F 58.3 °F 29.92 in WNW 3.0 mph 5.0 mph 77% 0.00 in
13:36 65.6 °F 57.1 °F 29.92 in Calm   4.0 mph 74% 0.00 in
13:40 65.9 °F 57.8 °F 29.92 in West 2.0 mph 6.0 mph 75% 0.00 in
13:41 65.9 °F 57.8 °F 29.92 in WSW 4.0 mph 7.0 mph 75% 0.00 in
13:46 65.7 °F 58.3 °F 29.92 in West 3.0 mph 7.0 mph 77% 0.00 in
13:51 65.6 °F 57.5 °F 29.92 in WSW 3.0 mph 6.0 mph 75% 0.00 in
13:52 65.6 °F 57.1 °F 29.92 in West 2.0 mph 6.0 mph 74% 0.00 in
13:54 65.8 °F 57.7 °F 29.92 in WNW 2.0 mph 4.0 mph 75% 0.00 in
13:55 65.8 °F 57.7 °F 29.92 in West 2.0 mph 4.0 mph 75% 0.00 in
13:57 65.8 °F 57.7 °F 29.92 in West 2.0 mph 5.0 mph 75% 0.00 in
14:00 66.1 °F 58.0 °F 29.92 in NW 2.0 mph 4.0 mph 75% 0.00 in
14:05 66.3 °F 58.5 °F 29.92 in West 3.0 mph 6.0 mph 76% 0.00 in
14:10 66.4 °F 57.9 °F 29.92 in WNW 5.0 mph 5.0 mph 74% 0.00 in
14:15 66.1 °F 57.2 °F 29.91 in Calm   4.0 mph 73% 0.00 in
14:20 66.6 °F 57.7 °F 29.91 in Calm   3.0 mph 73% 0.00 in
14:25 67.0 °F 59.2 °F 29.91 in WSW 2.0 mph 4.0 mph 76% 0.00 in
14:26 67.0 °F 59.2 °F 29.91 in WSW 2.0 mph 4.0 mph 76% 0.00 in
14:31 67.0 °F 58.1 °F 29.91 in SW 2.0 mph 5.0 mph 73% 0.00 in
14:36 67.4 °F 58.1 °F 29.91 in East 2.0 mph 7.0 mph 72% 0.00 in
14:41 67.7 °F 58.0 °F 29.91 in SSW 1.0 mph 3.0 mph 71% 0.00 in
14:42 67.8 °F 58.1 °F 29.91 in SW 2.0 mph 3.0 mph 71% 0.00 in
14:47 67.8 °F 57.7 °F 29.90 in West 2.0 mph 6.0 mph 70% 0.00 in
14:52 68.3 °F 58.5 °F 29.90 in West 1.0 mph 3.0 mph 71% 0.00 in
14:56 68.6 °F 58.4 °F 29.90 in SSW 5.0 mph 7.0 mph 70% 0.00 in
14:58 68.5 °F 57.9 °F 29.90 in SW 3.0 mph 7.0 mph 69% 0.00 in
15:01 69.0 °F 59.6 °F 29.90 in NNW 2.0 mph 4.0 mph 72% 0.00 in
15:06 69.3 °F 59.5 °F 29.90 in WNW 6.0 mph 6.0 mph 71% 0.00 in
15:12 69.1 °F 58.5 °F 29.90 in WNW 2.0 mph 4.0 mph 69% 0.00 in
15:17 68.9 °F 58.7 °F 29.90 in SW 1.0 mph 3.0 mph 70% 0.00 in
15:22 70.0 °F 60.2 °F 29.89 in Calm   1.0 mph 71% 0.00 in
15:27 70.0 °F 59.8 °F 29.89 in West 6.0 mph 8.0 mph 70% 0.00 in
15:32 69.9 °F 59.3 °F 29.89 in SW 2.0 mph 5.0 mph 69% 0.00 in
15:33 69.9 °F 58.0 °F 29.89 in SW 1.0 mph 4.0 mph 66% 0.00 in
15:35 70.1 °F 59.1 °F 29.89 in SSW 2.0 mph 4.0 mph 68% 0.00 in
15:38 70.8 °F 59.3 °F 29.89 in WNW 2.0 mph 3.0 mph 67% 0.00 in
15:43 70.1 °F 58.7 °F 29.89 in West 3.0 mph 5.0 mph 67% 0.00 in
15:48 69.9 °F 58.9 °F 29.89 in NNE 2.0 mph 4.0 mph 68% 0.00 in
15:53 69.9 °F 58.9 °F 29.88 in WNW 3.0 mph 5.0 mph 68% 0.00 in
15:58 70.2 °F 58.3 °F 29.88 in Calm   3.0 mph 66% 0.00 in
16:04 70.4 °F 59.3 °F 29.88 in NNW 3.0 mph 7.0 mph 68% 0.00 in
16:09 70.4 °F 58.1 °F 29.88 in WNW 4.0 mph 6.0 mph 65% 0.00 in
16:14 70.5 °F 61.0 °F 29.88 in West 2.0 mph 4.0 mph 72% 0.00 in
16:19 70.9 °F 59.8 °F 29.88 in SW 3.0 mph 4.0 mph 68% 0.00 in
16:24 71.6 °F 60.5 °F 29.87 in SSW 4.0 mph 5.0 mph 68% 0.00 in
16:29 71.6 °F 59.2 °F 29.87 in WNW 1.0 mph 3.0 mph 65% 0.00 in
16:30 71.6 °F 59.2 °F 29.87 in WNW 1.0 mph 3.0 mph 65% 0.00 in
16:35 71.6 °F 58.8 °F 29.87 in Calm   5.0 mph 64% 0.00 in
16:40 71.5 °F 59.1 °F 29.87 in ESE 3.0 mph 4.0 mph 65% 0.00 in
16:45 71.9 °F 60.4 °F 29.86 in NW 2.0 mph 2.0 mph 67% 0.00 in
16:50 71.9 °F 60.4 °F 29.87 in North 4.0 mph 5.0 mph 67% 0.00 in
16:51 71.9 °F 60.8 °F 29.87 in NW 2.0 mph 5.0 mph 68% 0.00 in
16:52 71.9 °F 60.8 °F 29.87 in North 6.0 mph 6.0 mph 68% 0.00 in
16:53 72.0 °F 59.6 °F 29.87 in WSW 1.0 mph 6.0 mph 65% 0.00 in
16:56 72.1 °F 59.3 °F 29.87 in WNW 2.0 mph 4.0 mph 64% 0.00 in
16:59 72.1 °F 58.8 °F 29.87 in NNW 1.0 mph 3.0 mph 63% 0.00 in
17:04 71.9 °F 59.5 °F 29.87 in NNE 4.0 mph 6.0 mph 65% 0.00 in
17:09 71.6 °F 59.7 °F 29.87 in North 4.0 mph 6.0 mph 66% 0.00 in
17:12 71.6 °F 60.5 °F 29.87 in NNW 3.0 mph 5.0 mph 68% 0.00 in
17:14 71.8 °F 61.5 °F 29.87 in NNW 3.0 mph 4.0 mph 70% 0.00 in
17:19 72.1 °F 60.5 °F 29.86 in Calm   3.0 mph 67% 0.00 in
17:24 73.0 °F 60.5 °F 29.86 in SSE 3.0 mph 3.0 mph 65% 0.00 in
17:29 73.4 °F 60.9 °F 29.86 in SSW 3.0 mph 3.0 mph 65% 0.00 in
17:30 73.4 °F 60.9 °F 29.86 in SSE 2.0 mph 3.0 mph 65% 0.00 in
17:33 73.4 °F 59.6 °F 29.85 in SW 2.0 mph 4.0 mph 62% 0.00 in
17:36 73.4 °F 60.9 °F 29.85 in East 2.0 mph 4.0 mph 65% 0.00 in
17:38 73.5 °F 60.2 °F 29.85 in NNE 1.0 mph 2.0 mph 63% 0.00 in
17:43 73.8 °F 60.0 °F 29.86 in South 3.0 mph 4.0 mph 62% 0.00 in
17:48 73.5 °F 61.0 °F 29.85 in WSW 2.0 mph 5.0 mph 65% 0.00 in
17:53 73.9 °F 60.5 °F 29.86 in WSW 3.0 mph 5.0 mph 63% 0.00 in
17:54 73.8 °F 61.3 °F 29.85 in SSW 4.0 mph 5.0 mph 65% 0.00 in
17:58 73.5 °F 59.7 °F 29.85 in SSW 3.0 mph 5.0 mph 62% 0.00 in
18:00 73.4 °F 59.6 °F 29.85 in SW 1.0 mph 4.0 mph 62% 0.00 in
18:03 73.7 °F 59.9 °F 29.85 in WSW 1.0 mph 2.0 mph 62% 0.00 in
18:05 74.0 °F 60.6 °F 29.85 in NNW 2.0 mph 2.0 mph 63% 0.00 in
18:10 74.1 °F 60.3 °F 29.85 in SSE 2.0 mph 4.0 mph 62% 0.00 in
18:15 74.6 °F 61.2 °F 29.85 in NNW 3.0 mph 4.0 mph 63% 0.00 in
18:20 73.9 °F 60.1 °F 29.85 in WSW 2.0 mph 4.0 mph 62% 0.00 in
18:25 73.7 °F 60.8 °F 29.85 in WSW 2.0 mph 4.0 mph 64% 0.00 in
18:26 73.7 °F 59.9 °F 29.85 in WSW 1.0 mph 4.0 mph 62% 0.00 in
18:31 74.2 °F 60.8 °F 29.85 in SW 3.0 mph 4.0 mph 63% 0.00 in
18:32 74.1 °F 60.3 °F 29.85 in West 2.0 mph 5.0 mph 62% 0.00 in
18:33 74.0 °F 59.7 °F 29.85 in SSW 1.0 mph 5.0 mph 61% 0.00 in
18:38 74.1 °F 59.8 °F 29.85 in West 2.0 mph 2.0 mph 61% 0.00 in
18:43 74.1 °F 59.8 °F 29.85 in West 2.0 mph 2.0 mph 61% 0.00 in
18:48 74.1 °F 59.8 °F 29.85 in West 2.0 mph 2.0 mph 61% 0.00 in
18:53 74.1 °F 59.8 °F 29.85 in West 2.0 mph 2.0 mph 61% 0.00 in
18:54 74.1 °F 59.8 °F 29.85 in West 2.0 mph 2.0 mph 61% 0.00 in
18:58 74.1 °F 59.8 °F 29.85 in West 2.0 mph 2.0 mph 61% 0.00 in
19:03 74.1 °F 59.8 °F 29.85 in West 2.0 mph 2.0 mph 61% 0.00 in
19:04 74.1 °F 59.8 °F 29.85 in West 2.0 mph 2.0 mph 61% 0.00 in
19:09 74.1 °F 59.8 °F 29.85 in West 2.0 mph 2.0 mph 61% 0.00 in
19:14 74.1 °F 59.8 °F 29.85 in West 2.0 mph 2.0 mph 61% 0.00 in
19:19 74.1 °F 59.8 °F 29.85 in West 2.0 mph 2.0 mph 61% 0.00 in
19:24 74.1 °F 59.8 °F 29.85 in West 2.0 mph 2.0 mph 61% 0.00 in
19:29 74.1 °F 59.8 °F 29.85 in West 2.0 mph 2.0 mph 61% 0.00 in
19:31 74.1 °F 59.8 °F 29.85 in West 2.0 mph 2.0 mph 61% 0.00 in
19:34 74.1 °F 59.8 °F 29.85 in West 2.0 mph 2.0 mph 61% 0.00 in
19:36 74.1 °F 59.8 °F 29.85 in West 2.0 mph 2.0 mph 61% 0.00 in
19:37 74.1 °F 59.8 °F 29.85 in West 2.0 mph 2.0 mph 61% 0.00 in
19:41 74.1 °F 59.8 °F 29.85 in West 2.0 mph 2.0 mph 61% 0.00 in
19:46 74.1 °F 59.8 °F 29.85 in West 2.0 mph 2.0 mph 61% 0.00 in
19:51 74.1 °F 59.8 °F 29.85 in West 2.0 mph 2.0 mph 61% 0.00 in
19:53 74.1 °F 59.8 °F 29.85 in West 2.0 mph 2.0 mph 61% 0.00 in
19:57 74.1 °F 59.8 °F 29.85 in West 2.0 mph 2.0 mph 61% 0.00 in
19:58 74.1 °F 59.8 °F 29.85 in West 2.0 mph 2.0 mph 61% 0.00 in
20:03 74.1 °F 59.8 °F 29.85 in West 2.0 mph 2.0 mph 61% 0.00 in
20:08 74.1 °F 59.8 °F 29.85 in West 2.0 mph 2.0 mph 61% 0.00 in
20:13 74.1 °F 59.8 °F 29.85 in West 2.0 mph 2.0 mph 61% 0.00 in
20:14 74.1 °F 59.8 °F 29.85 in West 2.0 mph 2.0 mph 61% 0.00 in
20:19 74.1 °F 59.8 °F 29.85 in West 2.0 mph 2.0 mph 61% 0.00 in
20:24 74.1 °F 59.8 °F 29.85 in West 2.0 mph 2.0 mph 61% 0.00 in
20:29 74.1 °F 59.8 °F 29.85 in West 2.0 mph 2.0 mph 61% 0.00 in
20:30 74.1 °F 59.8 °F 29.85 in West 2.0 mph 2.0 mph 61% 0.00 in
20:34 74.1 °F 59.8 °F 29.85 in West 2.0 mph 2.0 mph 61% 0.00 in
20:35 74.1 °F 59.8 °F 29.85 in West 2.0 mph 2.0 mph 61% 0.00 in
20:40 74.1 °F 59.8 °F 29.85 in West 2.0 mph 2.0 mph 61% 0.00 in
20:45 74.1 °F 59.8 °F 29.85 in West 2.0 mph 2.0 mph 61% 0.00 in
20:50 74.1 °F 59.8 °F 29.85 in West 2.0 mph 2.0 mph 61% 0.00 in
20:51 74.1 °F 59.8 °F 29.85 in West 2.0 mph 2.0 mph 61% 0.00 in
20:55 74.1 °F 59.8 °F 29.85 in West 2.0 mph 2.0 mph 61% 0.00 in
20:56 74.1 °F 59.8 °F 29.85 in West 2.0 mph 2.0 mph 61% 0.00 in
20:59 74.1 °F 59.8 °F 29.85 in West 2.0 mph 2.0 mph 61% 0.00 in
21:04 74.1 °F 59.8 °F 29.85 in West 2.0 mph 2.0 mph 61% 0.00 in
21:09 74.1 °F 59.8 °F 29.85 in West 2.0 mph 2.0 mph 61% 0.00 in
21:15 74.1 °F 59.8 °F 29.85 in West 2.0 mph 2.0 mph 61% 0.00 in
21:20 74.1 °F 59.8 °F 29.85 in West 2.0 mph 2.0 mph 61% 0.00 in
21:21 74.1 °F 59.8 °F 29.85 in West 2.0 mph 2.0 mph 61% 0.00 in
21:26 74.1 °F 59.8 °F 29.85 in West 2.0 mph 2.0 mph 61% 0.00 in
21:27 74.1 °F 59.8 °F 29.85 in West 2.0 mph 2.0 mph 61% 0.00 in
21:31 74.1 °F 59.8 °F 29.85 in West 2.0 mph 2.0 mph 61% 0.00 in
21:32 74.1 °F 59.8 °F 29.85 in West 2.0 mph 2.0 mph 61% 0.00 in
21:36 74.1 °F 59.8 °F 29.85 in West 2.0 mph 2.0 mph 61% 0.00 in
21:37 74.1 °F 59.8 °F 29.85 in West 2.0 mph 2.0 mph 61% 0.00 in
21:42 74.1 °F 59.8 °F 29.85 in West 2.0 mph 2.0 mph 61% 0.00 in
21:47 74.1 °F 59.8 °F 29.85 in West 2.0 mph 2.0 mph 61% 0.00 in
21:52 74.1 °F 59.8 °F 29.85 in West 2.0 mph 2.0 mph 61% 0.00 in
21:53 74.1 °F 59.8 °F 29.85 in West 2.0 mph 2.0 mph 61% 0.00 in
21:54 74.1 °F 59.8 °F 29.85 in West 2.0 mph 2.0 mph 61% 0.00 in
21:58 74.1 °F 59.8 °F 29.85 in West 2.0 mph 2.0 mph 61% 0.00 in
22:03 74.1 °F 59.8 °F 29.85 in West 2.0 mph 2.0 mph 61% 0.00 in
22:08 74.1 °F 59.8 °F 29.85 in West 2.0 mph 2.0 mph 61% 0.00 in
22:13 74.1 °F 59.8 °F 29.85 in West 2.0 mph 2.0 mph 61% 0.00 in
22:18 74.1 °F 59.8 °F 29.85 in West 2.0 mph 2.0 mph 61% 0.00 in
22:19 74.1 °F 59.8 °F 29.85 in West 2.0 mph 2.0 mph 61% 0.00 in
22:24 74.1 °F 59.8 °F 29.85 in West 2.0 mph 2.0 mph 61% 0.00 in
22:29 74.1 °F 59.8 °F 29.85 in West 2.0 mph 2.0 mph 61% 0.00 in
22:33 74.1 °F 59.8 °F 29.85 in West 2.0 mph 2.0 mph 61% 0.00 in
22:34 74.1 °F 59.8 °F 29.85 in West 2.0 mph 2.0 mph 61% 0.00 in
22:35 74.1 °F 59.8 °F 29.85 in West 2.0 mph 2.0 mph 61% 0.00 in
22:38 74.1 °F 59.8 °F 29.85 in West 2.0 mph 2.0 mph 61% 0.00 in
22:43 74.1 °F 59.8 °F 29.85 in West 2.0 mph 2.0 mph 61% 0.00 in
22:48 74.1 °F 59.8 °F 29.85 in West 2.0 mph 2.0 mph 61% 0.00 in
22:53 74.1 °F 59.8 °F 29.85 in West 2.0 mph 2.0 mph 61% 0.00 in
22:55 74.1 °F 59.8 °F 29.85 in West 2.0 mph 2.0 mph 61% 0.00 in
22:56 74.1 °F 59.8 °F 29.85 in West 2.0 mph 2.0 mph 61% 0.00 in
23:00 74.1 °F 59.8 °F 29.85 in West 2.0 mph 2.0 mph 61% 0.00 in
23:05 74.1 °F 59.8 °F 29.85 in West 2.0 mph 2.0 mph 61% 0.00 in
23:10 74.1 °F 59.8 °F 29.85 in West 2.0 mph 2.0 mph 61% 0.00 in
23:15 74.1 °F 59.8 °F 29.85 in West 2.0 mph 2.0 mph 61% 0.00 in
23:20 74.1 °F 59.8 °F 29.85 in West 2.0 mph 2.0 mph 61% 0.00 in
23:25 74.1 °F 59.8 °F 29.85 in West 2.0 mph 2.0 mph 61% 0.00 in
23:30 74.1 °F 59.8 °F 29.85 in West 2.0 mph 2.0 mph 61% 0.00 in
23:31 74.1 °F 59.8 °F 29.85 in West 2.0 mph 2.0 mph 61% 0.00 in
23:33 74.1 °F 59.8 °F 29.85 in West 2.0 mph 2.0 mph 61% 0.00 in
23:36 74.1 °F 59.8 °F 29.85 in West 2.0 mph 2.0 mph 61% 0.00 in
23:38 74.1 °F 59.8 °F 29.85 in West 2.0 mph 2.0 mph 61% 0.00 in
23:43 74.1 °F 59.8 °F 29.85 in West 2.0 mph 2.0 mph 61% 0.00 in
23:48 74.1 °F 59.8 °F 29.85 in West 2.0 mph 2.0 mph 61% 0.00 in
23:53 74.1 °F 59.8 °F 29.85 in West 2.0 mph 2.0 mph 61% 0.00 in
23:55 74.1 °F 59.8 °F 29.85 in West 2.0 mph 2.0 mph 61% 0.00 in
23:56 74.1 °F 59.8 °F 29.85 in West 2.0 mph 2.0 mph 61% 0.00 in
Compliments of Weather Underground